createdAt,value
2022-11-26T00:00:31.321Z,94.23
2022-11-26T00:02:59.514Z,94.70
2022-11-26T00:05:32.612Z,92.23
2022-11-26T00:08:02.880Z,99.83
2022-11-26T00:10:36.812Z,97.43
2022-11-26T00:13:07.167Z,97.37
2022-11-26T00:15:35.325Z,97.20
2022-11-26T00:18:03.482Z,99.53
2022-11-26T00:20:32.455Z,98.70
2022-11-26T00:23:04.446Z,96.77
2022-11-26T00:25:40.800Z,94.57
2022-11-26T00:28:33.803Z,96.97
2022-11-26T00:31:04.003Z,96.83
2022-11-26T00:33:32.904Z,97.70
2022-11-26T00:36:07.274Z,96.40
2022-11-26T00:38:36.731Z,99.63
2022-11-26T00:41:04.937Z,96.17
2022-11-26T00:43:33.134Z,100.10
2022-11-26T00:46:01.236Z,100.77
2022-11-26T00:48:29.319Z,99.17
2022-11-26T00:50:57.426Z,98.70
2022-11-26T00:53:27.753Z,98.57
2022-11-26T00:55:57.412Z,97.20
2022-11-26T00:58:27.451Z,95.27
2022-11-26T01:00:57.154Z,95.17
2022-11-26T01:03:26.234Z,95.87
2022-11-26T01:05:56.661Z,96.67
2022-11-26T01:08:31.132Z,95.97
2022-11-26T01:11:01.002Z,100.63
2022-11-26T01:13:29.885Z,101.27
2022-11-26T01:15:59.406Z,101.70
2022-11-26T01:18:28.106Z,102.03
2022-11-26T01:20:56.229Z,104.40
2022-11-26T01:23:24.309Z,102.50
2022-11-26T01:25:52.500Z,100.73
2022-11-26T01:28:21.932Z,97.07
2022-11-26T01:30:50.047Z,103.73
2022-11-26T01:33:18.288Z,101.80
2022-11-26T01:35:46.457Z,101.13
2022-11-26T01:38:16.072Z,102.87
2022-11-26T01:40:57.601Z,104.30
2022-11-26T01:43:29.378Z,104.57
2022-11-26T01:45:57.831Z,102.30
2022-11-26T01:48:29.241Z,101.60
2022-11-26T01:51:05.862Z,102.07
2022-11-26T01:53:45.856Z,101.27
2022-11-26T01:56:19.990Z,99.07
2022-11-26T01:58:52.525Z,101.20
2022-11-26T02:01:21.384Z,102.27
2022-11-26T02:03:59.624Z,104.10
2022-11-26T02:06:33.013Z,105.60
2022-11-26T02:09:03.667Z,108.50
2022-11-26T02:11:32.516Z,107.73
2022-11-26T02:14:05.755Z,105.37
2022-11-26T02:16:52.919Z,102.47
2022-11-26T02:19:49.139Z,103.70
2022-11-26T02:22:38.446Z,106.73
2022-11-26T02:25:15.185Z,103.47
2022-11-26T02:28:08.164Z,101.93
2022-11-26T02:30:40.032Z,104.40
2022-11-26T02:33:12.776Z,101.33
2022-11-26T02:35:46.226Z,103.50
2022-11-26T02:38:19.717Z,102.00
2022-11-26T02:40:47.992Z,104.50
2022-11-26T02:43:17.197Z,103.73
2022-11-26T02:45:49.319Z,102.67
2022-11-26T02:48:22.469Z,105.17
2022-11-26T02:50:54.746Z,101.43
2022-11-26T02:53:24.964Z,103.63
2022-11-26T02:56:00.039Z,102.63
2022-11-26T02:58:28.412Z,106.00
2022-11-26T03:01:00.287Z,102.60
2022-11-26T03:03:33.382Z,102.60
2022-11-26T03:06:06.026Z,101.70
2022-11-26T03:08:34.785Z,102.83
2022-11-26T03:11:02.948Z,99.97
2022-11-26T03:13:31.168Z,104.17
2022-11-26T03:16:00.744Z,105.13
2022-11-26T03:18:29.002Z,104.77
2022-11-26T03:20:57.364Z,105.87
2022-11-26T03:23:25.550Z,106.00
2022-11-26T03:25:53.687Z,105.33
2022-11-26T03:28:21.881Z,104.43
2022-11-26T03:30:50.955Z,103.90
2022-11-26T03:33:21.297Z,104.27
2022-11-26T03:35:50.703Z,102.83
2022-11-26T03:38:19.269Z,103.27
2022-11-26T03:40:47.338Z,102.50
2022-11-26T03:43:15.415Z,101.33
2022-11-26T03:45:43.558Z,98.27
2022-11-26T03:48:11.746Z,101.90
2022-11-26T03:50:41.217Z,103.27
2022-11-26T03:53:10.738Z,99.87
2022-11-26T03:55:39.014Z,97.93
2022-11-26T03:58:07.122Z,100.83
2022-11-26T04:00:35.204Z,102.57
2022-11-26T04:03:03.504Z,100.20
2022-11-26T04:05:31.993Z,101.80
2022-11-26T04:08:01.654Z,99.53
2022-11-26T04:10:30.895Z,102.83
2022-11-26T04:12:59.124Z,104.07
2022-11-26T04:15:27.527Z,108.27
2022-11-26T04:17:55.626Z,102.33
2022-11-26T04:20:23.888Z,100.10
2022-11-26T04:22:52.017Z,102.23
2022-11-26T04:25:21.512Z,102.30
2022-11-26T04:27:49.715Z,101.53
2022-11-26T04:30:17.901Z,101.30
2022-11-26T04:32:46.242Z,100.30
2022-11-26T04:35:14.660Z,99.27
2022-11-26T04:37:42.804Z,101.40
2022-11-26T04:40:12.290Z,100.13
2022-11-26T04:42:41.811Z,102.77
2022-11-26T04:45:11.378Z,102.00
2022-11-26T04:47:42.894Z,101.50
2022-11-26T04:50:12.321Z,104.50
2022-11-26T04:52:40.466Z,104.93
2022-11-26T04:55:09.207Z,103.50
2022-11-26T04:57:37.610Z,96.20
2022-11-26T05:00:09.258Z,99.30
2022-11-26T05:02:37.418Z,102.90
2022-11-26T05:05:06.186Z,101.97
2022-11-26T05:07:35.173Z,104.47
2022-11-26T05:10:03.302Z,102.30
2022-11-26T05:12:31.466Z,101.40
2022-11-26T05:14:59.570Z,100.77
2022-11-26T05:17:28.975Z,101.63
2022-11-26T05:19:57.005Z,103.50
2022-11-26T05:22:25.649Z,98.87
2022-11-26T05:24:53.783Z,102.53
2022-11-26T05:27:21.982Z,100.80
2022-11-26T05:29:50.055Z,102.03
2022-11-26T05:32:18.218Z,101.20
2022-11-26T05:34:47.679Z,100.17
2022-11-26T05:37:15.751Z,103.50
2022-11-26T05:39:43.969Z,98.87
2022-11-26T05:42:12.336Z,96.13
2022-11-26T05:44:40.685Z,95.10
2022-11-26T05:47:09.099Z,95.50
2022-11-26T05:49:37.320Z,101.53
2022-11-26T05:52:06.896Z,89.83
2022-11-26T05:54:34.922Z,91.60
2022-11-26T05:57:03.053Z,95.80
2022-11-26T05:59:31.422Z,92.97
2022-11-26T06:01:59.778Z,96.40
2022-11-26T06:04:27.935Z,97.97
2022-11-26T06:06:57.388Z,94.97
2022-11-26T06:09:26.722Z,98.73
2022-11-26T06:11:54.932Z,95.93
2022-11-26T06:14:23.282Z,93.37
2022-11-26T06:16:51.428Z,88.67
2022-11-26T06:19:19.641Z,94.70
2022-11-26T06:21:47.744Z,92.67
2022-11-26T06:24:15.910Z,93.10
2022-11-26T06:26:45.660Z,90.80
2022-11-26T06:29:13.799Z,89.60
2022-11-26T06:31:42.108Z,87.47
2022-11-26T06:34:10.273Z,90.03
2022-11-26T06:36:38.427Z,85.63
2022-11-26T06:39:06.672Z,89.60
2022-11-26T06:41:34.842Z,88.33
2022-11-26T06:44:04.851Z,77.07
2022-11-26T06:46:35.285Z,91.75
2022-11-26T06:49:04.246Z,84.67
2022-11-26T06:51:33.394Z,86.53
2022-11-26T06:54:01.876Z,86.87
2022-11-26T06:56:30.066Z,95.37
2022-11-26T06:58:58.176Z,97.90
2022-11-26T07:01:28.206Z,93.93
2022-11-26T07:03:56.620Z,92.43
2022-11-26T07:06:25.947Z,101.13
2022-11-26T07:08:55.950Z,99.90
2022-11-26T07:11:25.183Z,100.27
2022-11-26T07:13:53.507Z,97.37
2022-11-26T07:16:21.890Z,93.67
2022-11-26T07:18:57.769Z,102.50
2022-11-26T07:21:30.199Z,101.60
2022-11-26T07:23:59.276Z,103.03
2022-11-26T07:26:27.441Z,100.63
2022-11-26T07:28:56.913Z,98.13
2022-11-26T07:31:25.548Z,100.90
2022-11-26T07:33:55.234Z,96.53
2022-11-26T07:36:25.899Z,101.70
2022-11-26T07:38:55.113Z,100.47
2022-11-26T07:41:23.737Z,99.27
2022-11-26T07:43:52.474Z,99.67
2022-11-26T07:46:23.333Z,98.50
2022-11-26T07:48:52.060Z,97.23
2022-11-26T07:51:23.504Z,98.13
2022-11-26T07:53:52.318Z,99.67
2022-11-26T07:56:20.807Z,100.97
2022-11-26T07:58:49.442Z,99.47
2022-11-26T08:01:19.850Z,100.40
2022-11-26T08:03:49.372Z,101.17
2022-11-26T08:06:19.100Z,102.43
2022-11-26T08:08:49.159Z,97.50
2022-11-26T08:11:19.607Z,99.53
2022-11-26T08:13:48.651Z,97.90
2022-11-26T08:16:17.231Z,97.53
2022-11-26T08:18:45.461Z,100.93
2022-11-26T08:21:13.707Z,100.43
2022-11-26T08:23:41.926Z,101.70
2022-11-26T08:26:23.896Z,101.90
2022-11-26T08:28:56.660Z,98.33
2022-11-26T08:31:27.811Z,97.37
2022-11-26T08:33:58.991Z,96.43
2022-11-26T08:36:27.832Z,97.13
2022-11-26T08:38:56.272Z,101.50
2022-11-26T08:41:25.855Z,102.93
2022-11-26T08:44:09.364Z,100.83
2022-11-26T08:46:38.285Z,104.17
2022-11-26T08:49:08.172Z,103.47
2022-11-26T08:51:36.406Z,101.33
2022-11-26T08:54:04.768Z,101.40
2022-11-26T08:56:35.776Z,102.00
2022-11-26T08:59:04.199Z,105.80
2022-11-26T09:01:34.227Z,108.07
2022-11-26T09:04:06.914Z,106.60
2022-11-26T09:06:37.747Z,103.67
2022-11-26T09:09:17.616Z,102.37
2022-11-26T09:11:49.677Z,102.40
2022-11-26T09:14:20.495Z,103.37
2022-11-26T09:16:48.960Z,105.60
2022-11-26T09:19:17.561Z,103.70
2022-11-26T09:21:46.119Z,111.23
2022-11-26T09:24:15.128Z,110.23
2022-11-26T09:26:43.824Z,112.63
2022-11-26T09:29:15.702Z,113.70
2022-11-26T09:32:07.404Z,113.37
2022-11-26T09:34:33.328Z,110.37
2022-11-26T09:37:01.544Z,112.67
2022-11-26T09:39:30.342Z,109.70
2022-11-26T09:42:04.162Z,115.27
2022-11-26T09:44:47.409Z,109.10
2022-11-26T09:47:22.403Z,109.83
2022-11-26T09:50:01.856Z,113.53
2022-11-26T09:52:35.752Z,110.07
2022-11-26T09:55:20.662Z,116.03
2022-11-26T09:57:58.492Z,115.60
2022-11-26T10:00:30.573Z,109.87
2022-11-26T10:02:59.525Z,111.70
2022-11-26T10:05:40.629Z,116.27
2022-11-26T10:08:19.082Z,116.77
2022-11-26T10:10:57.037Z,110.70
2022-11-26T10:13:34.370Z,111.43
2022-11-26T10:16:11.464Z,111.17
2022-11-26T10:18:47.725Z,107.17
2022-11-26T10:21:32.583Z,102.47
2022-11-26T10:24:18.936Z,100.77
2022-11-26T10:26:48.466Z,104.33
2022-11-26T10:29:23.860Z,103.60
2022-11-26T10:31:58.453Z,106.13
2022-11-26T10:34:37.438Z,106.63
2022-11-26T10:37:07.349Z,103.27
2022-11-26T10:39:35.705Z,99.90
2022-11-26T10:42:08.016Z,106.57
2022-11-26T10:44:40.928Z,103.63
2022-11-26T10:47:26.466Z,106.20
2022-11-26T10:49:56.419Z,106.47
2022-11-26T10:52:33.481Z,103.00
2022-11-26T10:55:27.468Z,110.37
2022-11-26T10:58:02.546Z,110.57
2022-11-26T11:00:36.039Z,111.40
2022-11-26T11:03:07.856Z,107.50
2022-11-26T11:05:36.230Z,107.50
2022-11-26T11:08:04.768Z,104.60
2022-11-26T11:10:32.936Z,102.20
2022-11-26T11:13:11.937Z,99.40
2022-11-26T11:15:41.263Z,108.67
2022-11-26T11:18:19.579Z,99.23
2022-11-26T11:20:55.723Z,94.50
2022-11-26T11:23:40.079Z,94.07
2022-11-26T11:26:18.615Z,99.27
2022-11-26T11:28:49.593Z,102.77
2022-11-26T11:31:21.044Z,104.33
2022-11-26T11:33:51.707Z,103.13
2022-11-26T11:36:27.217Z,99.17
2022-11-26T11:38:56.701Z,101.73
2022-11-26T11:41:33.326Z,103.63
2022-11-26T11:44:06.692Z,95.83
2022-11-26T11:47:01.389Z,91.80
2022-11-26T11:49:45.183Z,93.93
2022-11-26T11:52:20.923Z,91.30
2022-11-26T11:54:56.984Z,91.40
2022-11-26T11:57:41.730Z,88.20
2022-11-26T12:00:14.404Z,80.13
2022-11-26T12:03:01.862Z,76.43
2022-11-26T12:05:56.157Z,77.60
2022-11-26T12:08:34.223Z,72.63
2022-11-26T12:11:18.263Z,73.63
2022-11-26T12:13:55.884Z,70.40
2022-11-26T12:16:27.736Z,68.27
2022-11-26T12:19:01.807Z,66.43
2022-11-26T12:21:39.146Z,65.03
2022-11-26T12:24:13.823Z,62.03
2022-11-26T12:26:47.236Z,58.30
2022-11-26T12:29:21.021Z,59.03
2022-11-26T12:31:53.926Z,57.57
2022-11-26T12:34:29.205Z,54.40
2022-11-26T12:37:02.649Z,54.10
2022-11-26T12:39:39.502Z,51.27
2022-11-26T12:42:16.479Z,50.17
2022-11-26T12:44:49.391Z,50.00
2022-11-26T12:47:25.314Z,47.70
2022-11-26T12:50:06.504Z,47.00
2022-11-26T12:52:42.286Z,46.33
2022-11-26T12:55:17.241Z,44.30
2022-11-26T12:57:50.132Z,46.13
2022-11-26T13:00:26.128Z,46.17
2022-11-26T13:02:56.032Z,44.53
2022-11-26T13:05:31.019Z,47.73
2022-11-26T13:08:21.232Z,45.83
2022-11-26T13:11:09.866Z,44.30
2022-11-26T13:13:48.603Z,42.93
2022-11-26T13:16:24.870Z,44.20
2022-11-26T13:18:57.029Z,44.07
2022-11-26T13:21:45.097Z,40.40
2022-11-26T13:24:30.703Z,40.43
2022-11-26T13:27:19.306Z,38.10
2022-11-26T13:30:15.139Z,37.37
2022-11-26T13:33:21.779Z,35.70
2022-11-26T13:36:10.409Z,36.90
2022-11-26T13:38:54.131Z,37.40
2022-11-26T13:41:36.342Z,37.30
2022-11-26T13:44:40.498Z,36.70
2022-11-26T13:47:13.785Z,33.80
2022-11-26T13:49:47.869Z,33.13
2022-11-26T13:52:20.067Z,32.90
2022-11-26T13:54:52.913Z,30.83
2022-11-26T13:57:25.927Z,30.37
2022-11-26T13:59:56.561Z,30.40
2022-11-26T14:02:44.491Z,30.53
2022-11-26T14:05:15.167Z,30.70
2022-11-26T14:07:44.392Z,30.50
2022-11-26T14:10:41.343Z,31.67
2022-11-26T14:13:16.298Z,31.40
2022-11-26T14:16:02.717Z,31.97
2022-11-26T14:19:00.774Z,32.53
2022-11-26T14:21:31.159Z,34.90
2022-11-26T14:24:01.116Z,35.20
2022-11-26T14:26:31.806Z,35.87
2022-11-26T14:29:12.492Z,35.90
2022-11-26T14:31:43.871Z,36.33
2022-11-26T14:34:15.700Z,37.50
2022-11-26T14:36:55.818Z,38.07
2022-11-26T14:39:24.071Z,39.23
2022-11-26T14:41:53.815Z,40.63
2022-11-26T14:44:25.336Z,43.17
2022-11-26T14:46:56.559Z,41.97
2022-11-26T14:49:35.531Z,41.57
2022-11-26T14:52:06.371Z,41.60
2022-11-26T14:54:36.202Z,42.87
2022-11-26T14:57:08.444Z,43.90
2022-11-26T14:59:38.047Z,42.80
2022-11-26T15:02:22.766Z,46.70
2022-11-26T15:04:59.699Z,48.00
2022-11-26T15:07:30.124Z,46.90
2022-11-26T15:10:03.338Z,48.17
2022-11-26T15:12:32.627Z,48.50
2022-11-26T15:15:04.200Z,49.30
2022-11-26T15:17:34.338Z,48.47
2022-11-26T15:20:07.275Z,49.23
2022-11-26T15:22:39.150Z,49.70
2022-11-26T15:25:17.008Z,46.47
2022-11-26T15:27:58.977Z,45.17
2022-11-26T15:30:30.889Z,45.10
2022-11-26T15:33:01.158Z,49.73
2022-11-26T15:35:29.679Z,49.17
2022-11-26T15:37:58.363Z,48.53
2022-11-26T15:40:31.500Z,50.60
2022-11-26T15:43:03.314Z,51.50
2022-11-26T15:45:39.887Z,53.23
2022-11-26T15:48:27.644Z,50.72
2022-11-26T15:51:01.256Z,54.05
2022-11-26T15:53:33.385Z,52.70
2022-11-26T15:56:02.936Z,51.60
2022-11-26T15:58:34.118Z,52.23
2022-11-26T16:01:06.699Z,52.73
2022-11-26T16:03:45.264Z,52.57
2022-11-26T16:06:29.931Z,52.23
2022-11-26T16:09:02.538Z,50.80
2022-11-26T16:11:33.957Z,51.90
2022-11-26T16:14:23.660Z,49.80
2022-11-26T16:16:53.839Z,47.80
2022-11-26T16:19:23.003Z,48.30
2022-11-26T16:21:52.782Z,47.23
2022-11-26T16:24:29.745Z,49.57
2022-11-26T16:27:00.779Z,49.67
2022-11-26T16:29:30.710Z,48.10
2022-11-26T16:32:00.640Z,50.33
2022-11-26T16:34:29.485Z,51.40
2022-11-26T16:37:20.046Z,51.63
2022-11-26T16:39:48.676Z,50.47
2022-11-26T16:42:18.389Z,48.57
2022-11-26T16:44:46.600Z,48.70
2022-11-26T16:47:23.406Z,48.67
2022-11-26T16:49:51.715Z,47.60
2022-11-26T16:52:20.997Z,47.93
2022-11-26T16:54:49.860Z,46.90
2022-11-26T16:57:21.324Z,47.73
2022-11-26T16:59:52.777Z,47.97
2022-11-26T17:02:24.318Z,48.77
2022-11-26T17:04:52.749Z,49.27
2022-11-26T17:07:23.642Z,49.80
2022-11-26T17:09:51.988Z,50.67
2022-11-26T17:12:21.690Z,50.57
2022-11-26T17:14:50.170Z,49.90
2022-11-26T17:17:23.774Z,50.60
2022-11-26T17:19:54.558Z,49.13
2022-11-26T17:22:22.603Z,49.47
2022-11-26T17:24:50.761Z,49.47
2022-11-26T17:27:20.979Z,50.90
2022-11-26T17:29:49.740Z,51.53
2022-11-26T17:32:19.848Z,50.80
2022-11-26T17:34:48.210Z,50.93
2022-11-26T17:37:21.150Z,50.60
2022-11-26T17:39:49.455Z,51.92
2022-11-26T17:42:19.719Z,56.78
2022-11-26T17:44:48.195Z,51.53
2022-11-26T17:47:18.203Z,54.00
2022-11-26T17:49:47.276Z,51.57
2022-11-26T17:52:17.681Z,50.20
2022-11-26T17:54:46.799Z,49.37
2022-11-26T17:57:16.584Z,50.53
2022-11-26T17:59:45.531Z,50.60
2022-11-26T18:02:13.643Z,49.30
2022-11-26T18:04:41.705Z,48.00
2022-11-26T18:07:14.219Z,49.30
2022-11-26T18:09:43.626Z,48.73
2022-11-26T18:12:23.179Z,48.33
2022-11-26T18:14:53.565Z,48.67
2022-11-26T18:17:22.241Z,50.73
2022-11-26T18:19:51.146Z,49.37
2022-11-26T18:22:21.075Z,50.47
2022-11-26T18:24:56.558Z,47.37
2022-11-26T18:27:26.810Z,49.43
2022-11-26T18:29:54.959Z,48.30
2022-11-26T18:32:23.011Z,49.97
2022-11-26T18:34:51.093Z,51.73
2022-11-26T18:37:19.543Z,51.27
2022-11-26T18:39:47.766Z,51.30
2022-11-26T18:45:06.419Z,49.87
2022-11-26T18:47:34.707Z,51.37
2022-11-26T18:50:02.842Z,52.87
2022-11-26T18:52:30.931Z,52.67
2022-11-26T18:54:59.932Z,51.97
2022-11-26T18:57:29.400Z,51.83
2022-11-26T18:59:57.500Z,51.70
2022-11-26T19:02:25.831Z,51.80
2022-11-26T19:04:54.466Z,50.63
2022-11-26T19:07:23.222Z,51.17
2022-11-26T19:09:53.848Z,51.70
2022-11-26T19:12:22.072Z,52.23
2022-11-26T19:14:51.687Z,53.37
2022-11-26T19:17:19.811Z,52.77
2022-11-26T19:19:48.195Z,52.60
2022-11-26T19:22:16.324Z,52.47
2022-11-26T19:24:44.471Z,52.43
2022-11-26T19:27:14.372Z,52.27
2022-11-26T19:29:42.648Z,53.60
2022-11-26T19:32:12.335Z,52.37
2022-11-26T19:34:40.877Z,52.60
2022-11-26T19:37:09.196Z,49.90
2022-11-26T19:39:37.859Z,53.93
2022-11-26T19:42:06.314Z,51.67
2022-11-26T19:44:35.711Z,52.03
2022-11-26T19:47:04.779Z,52.70
2022-11-26T19:49:35.591Z,53.33
2022-11-26T19:52:03.801Z,51.73
2022-11-26T19:54:31.964Z,51.60
2022-11-26T19:57:00.167Z,52.47
2022-11-26T19:59:28.286Z,52.50
2022-11-26T20:01:56.538Z,52.00
2022-11-26T20:04:27.557Z,51.27
2022-11-26T20:06:58.341Z,52.55
2022-11-26T20:09:26.481Z,54.03
2022-11-26T20:11:54.645Z,52.87
2022-11-26T20:14:22.926Z,51.47
2022-11-26T20:16:52.516Z,52.03
2022-11-26T20:19:22.187Z,52.10
2022-11-26T20:21:50.840Z,52.40
2022-11-26T20:24:20.531Z,50.90
2022-11-26T20:26:50.863Z,51.37
2022-11-26T20:29:20.067Z,51.87
2022-11-26T20:31:50.100Z,53.87
2022-11-26T20:34:21.149Z,49.77
2022-11-26T20:36:50.162Z,48.40
2022-11-26T20:39:21.682Z,47.33
2022-11-26T20:41:50.194Z,48.40
2022-11-26T20:44:18.397Z,47.13
2022-11-26T20:46:46.567Z,47.33
2022-11-26T20:49:16.126Z,45.93
2022-11-26T20:51:44.324Z,45.60
2022-11-26T20:54:12.493Z,44.43
2022-11-26T20:56:42.126Z,44.53
2022-11-26T20:59:10.191Z,43.60
2022-11-26T21:01:41.469Z,43.23
2022-11-26T21:04:09.833Z,46.00
2022-11-26T21:06:38.040Z,43.87
2022-11-26T21:09:07.335Z,43.77
2022-11-26T21:11:36.512Z,43.63
2022-11-26T21:14:08.484Z,42.57
2022-11-26T21:16:39.110Z,42.97
2022-11-26T21:19:07.315Z,41.40
2022-11-26T21:21:35.453Z,40.97
2022-11-26T21:24:04.691Z,43.40
2022-11-26T21:26:33.438Z,41.63
2022-11-26T21:29:02.716Z,42.80
2022-11-26T21:31:32.835Z,43.13
2022-11-26T21:34:02.263Z,44.20
2022-11-26T21:36:31.978Z,45.80
2022-11-26T21:39:00.251Z,46.00
2022-11-26T21:41:28.726Z,45.33
2022-11-26T21:43:56.793Z,45.97
2022-11-26T21:46:27.545Z,45.17
2022-11-26T21:48:58.128Z,45.23
2022-11-26T21:51:28.079Z,45.50
2022-11-26T21:53:57.740Z,47.00
2022-11-26T21:56:27.845Z,47.60
2022-11-26T21:58:57.912Z,46.77
2022-11-26T22:01:28.927Z,46.10
2022-11-26T22:04:00.663Z,47.43
2022-11-26T22:06:29.093Z,49.40
2022-11-26T22:08:57.464Z,49.50
2022-11-26T22:11:27.342Z,48.70
2022-11-26T22:13:55.781Z,49.97
2022-11-26T22:16:25.584Z,48.57
2022-11-26T22:18:54.589Z,49.93
2022-11-26T22:21:26.359Z,48.87
2022-11-26T22:23:54.672Z,51.30
2022-11-26T22:26:23.172Z,52.30
2022-11-26T22:28:52.511Z,52.37
2022-11-26T22:31:22.266Z,52.63
2022-11-26T22:33:51.558Z,52.43
2022-11-26T22:36:19.636Z,53.23
2022-11-26T22:38:49.051Z,54.13
2022-11-26T22:41:17.408Z,53.53
2022-11-26T22:43:45.815Z,54.47
2022-11-26T22:46:15.670Z,56.60
2022-11-26T22:48:44.675Z,55.13
2022-11-26T22:51:13.481Z,57.20
2022-11-26T22:53:41.493Z,56.57
2022-11-26T22:56:11.235Z,57.67
2022-11-26T22:58:39.285Z,59.03
2022-11-26T23:01:09.525Z,59.43
2022-11-26T23:03:39.043Z,58.30
2022-11-26T23:06:09.020Z,57.30
2022-11-26T23:08:38.207Z,56.43
2022-11-26T23:11:07.860Z,56.03
2022-11-26T23:13:37.749Z,54.10
2022-11-26T23:16:08.694Z,53.07
2022-11-26T23:18:37.553Z,54.90
2022-11-26T23:21:08.131Z,54.70
2022-11-26T23:23:37.047Z,55.80
2022-11-26T23:26:05.704Z,56.33
2022-11-26T23:28:35.258Z,57.63
2022-11-26T23:31:06.073Z,56.10
2022-11-26T23:33:35.322Z,56.50
2022-11-26T23:36:03.557Z,56.70
2022-11-26T23:38:31.645Z,56.67
2022-11-26T23:41:01.468Z,56.87
2022-11-26T23:43:30.995Z,56.90
2022-11-26T23:46:04.618Z,56.03
2022-11-26T23:48:33.233Z,56.40
2022-11-26T23:51:02.076Z,55.97
2022-11-26T23:53:30.234Z,57.70
2022-11-26T23:56:02.981Z,58.27
2022-11-26T23:58:31.384Z,58.33
